createdAt,value
2017-09-13T00:02:26.970Z,22.72
2017-09-13T00:04:54.484Z,22.71
2017-09-13T00:07:22.205Z,22.71
2017-09-13T00:09:49.693Z,22.69
2017-09-13T00:12:17.359Z,22.68
2017-09-13T00:14:44.864Z,22.69
2017-09-13T00:17:12.370Z,22.69
2017-09-13T00:19:39.883Z,22.69
2017-09-13T00:22:07.443Z,22.69
2017-09-13T00:24:34.932Z,22.69
2017-09-13T00:27:02.480Z,22.69
2017-09-13T00:29:29.973Z,22.68
2017-09-13T00:31:57.478Z,22.69
2017-09-13T00:34:25.014Z,22.69
2017-09-13T00:36:52.559Z,22.68
2017-09-13T00:39:20.044Z,22.68
2017-09-13T00:41:47.551Z,22.67
2017-09-13T00:44:15.070Z,22.66
2017-09-13T00:46:42.555Z,22.68
2017-09-13T00:49:10.077Z,22.68
2017-09-13T00:51:37.553Z,22.67
2017-09-13T00:54:05.313Z,22.66
2017-09-13T00:56:32.817Z,22.65
2017-09-13T00:59:00.369Z,22.67
2017-09-13T01:01:27.852Z,22.67
2017-09-13T01:03:55.553Z,22.66
2017-09-13T01:06:23.047Z,22.66
2017-09-13T01:08:50.558Z,22.66
2017-09-13T01:11:18.083Z,22.64
2017-09-13T01:13:45.574Z,22.66
2017-09-13T01:16:13.166Z,22.67
2017-09-13T01:18:40.732Z,22.66
2017-09-13T01:21:08.288Z,22.65
2017-09-13T01:23:35.774Z,22.65
2017-09-13T01:26:03.308Z,22.65
2017-09-13T01:28:30.803Z,22.65
2017-09-13T01:30:58.341Z,22.65
2017-09-13T01:33:25.837Z,22.64
2017-09-13T01:35:53.327Z,22.65
2017-09-13T01:38:20.913Z,22.64
2017-09-13T01:40:48.556Z,22.62
2017-09-13T01:43:16.136Z,22.64
2017-09-13T01:45:43.652Z,22.63
2017-09-13T01:48:11.353Z,22.62
2017-09-13T01:50:38.847Z,22.62
2017-09-13T01:53:06.354Z,22.62
2017-09-13T01:55:33.853Z,22.62
2017-09-13T01:58:01.349Z,22.63
2017-09-13T02:00:28.830Z,22.62
2017-09-13T02:02:56.371Z,22.61
2017-09-13T02:05:23.913Z,22.59
2017-09-13T02:07:51.386Z,22.60
2017-09-13T02:10:18.903Z,22.62
2017-09-13T02:12:46.412Z,22.62
2017-09-13T02:15:13.904Z,22.61
2017-09-13T02:17:41.414Z,22.61
2017-09-13T02:20:08.920Z,22.60
2017-09-13T02:22:36.398Z,22.59
2017-09-13T02:25:03.948Z,22.60
2017-09-13T02:27:31.448Z,22.60
2017-09-13T02:29:58.937Z,22.59
2017-09-13T02:32:26.460Z,22.60
2017-09-13T02:34:53.939Z,22.60
2017-09-13T02:37:21.449Z,22.60
2017-09-13T02:39:48.974Z,22.60
2017-09-13T02:42:16.554Z,22.59
2017-09-13T02:44:44.071Z,22.59
2017-09-13T02:47:11.575Z,22.60
2017-09-13T02:49:39.067Z,22.59
2017-09-13T02:52:06.542Z,22.59
2017-09-13T02:54:34.117Z,22.59
2017-09-13T02:57:01.611Z,22.59
2017-09-13T02:59:29.112Z,22.58
2017-09-13T03:01:56.750Z,22.56
2017-09-13T03:04:24.282Z,22.57
2017-09-13T03:06:51.861Z,22.56
2017-09-13T03:09:19.402Z,22.54
2017-09-13T03:11:46.926Z,22.56
2017-09-13T03:14:14.456Z,22.57
2017-09-13T03:16:41.968Z,22.55
2017-09-13T03:19:09.547Z,22.55
2017-09-13T03:21:37.044Z,22.55
2017-09-13T03:24:04.557Z,22.55
2017-09-13T03:26:32.060Z,22.55
2017-09-13T03:28:59.727Z,22.55
2017-09-13T03:31:27.238Z,22.55
2017-09-13T03:33:54.728Z,22.55
2017-09-13T03:36:22.254Z,22.55
2017-09-13T03:38:49.826Z,22.55
2017-09-13T03:41:17.352Z,22.54
2017-09-13T03:43:44.922Z,22.55
2017-09-13T03:46:12.431Z,22.55
2017-09-13T03:48:39.913Z,22.53
2017-09-13T03:51:07.411Z,22.53
2017-09-13T03:53:34.916Z,22.54
2017-09-13T03:56:02.403Z,22.54
2017-09-13T03:58:29.942Z,22.53
2017-09-13T04:00:57.475Z,22.53
2017-09-13T04:03:24.962Z,22.52
2017-09-13T04:05:52.451Z,22.51
2017-09-13T04:08:20.097Z,22.52
2017-09-13T04:10:47.640Z,22.52
2017-09-13T04:13:15.753Z,22.51
2017-09-13T04:15:43.278Z,22.51
2017-09-13T04:18:10.774Z,22.51
2017-09-13T04:20:38.304Z,22.53
2017-09-13T04:23:05.840Z,22.53
2017-09-13T04:25:33.328Z,22.51
2017-09-13T04:28:00.840Z,22.51
2017-09-13T04:30:28.541Z,22.52
2017-09-13T04:32:56.033Z,22.52
2017-09-13T04:35:23.523Z,22.53
2017-09-13T04:37:51.045Z,22.55
2017-09-13T04:40:18.545Z,22.55
2017-09-13T04:42:46.043Z,22.56
2017-09-13T04:45:13.544Z,22.56
2017-09-13T04:47:41.063Z,22.55
2017-09-13T04:50:08.585Z,22.57
2017-09-13T04:52:36.101Z,22.56
2017-09-13T04:55:03.598Z,22.58
2017-09-13T04:57:31.113Z,22.56
2017-09-13T04:59:58.650Z,22.55
2017-09-13T05:02:26.139Z,22.57
2017-09-13T05:04:53.636Z,22.56
2017-09-13T05:07:21.156Z,22.58
2017-09-13T05:09:48.662Z,22.58
2017-09-13T05:12:16.146Z,22.59
2017-09-13T05:14:43.656Z,22.58
2017-09-13T05:17:11.176Z,22.58
2017-09-13T05:19:38.676Z,22.57
2017-09-13T05:22:06.221Z,22.56
2017-09-13T05:24:33.713Z,22.58
2017-09-13T05:27:01.277Z,22.58
2017-09-13T05:29:28.828Z,22.57
2017-09-13T05:31:56.309Z,22.56
2017-09-13T05:34:23.793Z,22.57
2017-09-13T05:36:51.493Z,22.58
2017-09-13T05:39:19.053Z,22.58
2017-09-13T05:41:46.559Z,22.59
2017-09-13T05:44:14.074Z,22.59
2017-09-13T05:46:41.622Z,22.60
2017-09-13T05:49:09.123Z,22.59
2017-09-13T05:51:36.635Z,22.59
2017-09-13T05:54:04.143Z,22.58
2017-09-13T05:56:31.670Z,22.57
2017-09-13T05:58:59.208Z,22.57
2017-09-13T06:01:26.705Z,22.56
2017-09-13T06:03:54.238Z,22.58
2017-09-13T06:06:21.830Z,22.58
2017-09-13T06:08:49.320Z,22.57
2017-09-13T06:11:16.811Z,22.56
2017-09-13T06:13:44.364Z,22.56
2017-09-13T06:16:11.858Z,22.55
2017-09-13T06:18:39.342Z,22.55
2017-09-13T06:21:06.866Z,22.54
2017-09-13T06:23:34.350Z,22.53
2017-09-13T06:26:01.829Z,22.53
2017-09-13T06:28:29.343Z,22.54
2017-09-13T06:30:56.837Z,22.52
2017-09-13T06:33:24.331Z,22.52
2017-09-13T06:35:52.001Z,22.52
2017-09-13T06:38:19.487Z,22.52
2017-09-13T06:40:46.969Z,22.52
2017-09-13T06:43:14.503Z,22.51
2017-09-13T06:45:42.019Z,22.51
2017-09-13T06:48:09.537Z,22.50
2017-09-13T06:50:37.091Z,22.51
2017-09-13T06:53:04.585Z,22.51
2017-09-13T06:55:32.090Z,22.51
2017-09-13T06:57:59.610Z,22.50
2017-09-13T07:00:27.104Z,22.50
2017-09-13T07:02:54.600Z,22.50
2017-09-13T07:05:22.130Z,22.50
2017-09-13T07:07:49.644Z,22.50
2017-09-13T07:10:17.136Z,22.49
2017-09-13T07:12:44.661Z,22.49
2017-09-13T07:15:12.189Z,22.50
2017-09-13T07:17:39.686Z,22.50
2017-09-13T07:20:07.223Z,22.49
2017-09-13T07:22:34.723Z,22.49
2017-09-13T07:25:02.236Z,22.49
2017-09-13T07:27:29.747Z,22.49
2017-09-13T07:29:57.241Z,22.49
2017-09-13T07:32:24.727Z,22.49
2017-09-13T07:34:52.456Z,22.49
2017-09-13T07:37:19.953Z,22.50
2017-09-13T07:39:47.531Z,22.49
2017-09-13T07:42:15.062Z,22.48
2017-09-13T07:44:42.568Z,22.48
2017-09-13T07:47:10.082Z,22.49
2017-09-13T07:49:37.857Z,22.48
2017-09-13T07:52:05.391Z,22.49
2017-09-13T07:54:32.898Z,22.48
2017-09-13T07:57:00.418Z,22.49
2017-09-13T07:59:28.080Z,22.48
2017-09-13T08:01:55.577Z,22.47
2017-09-13T08:04:23.080Z,22.47
2017-09-13T08:06:50.584Z,22.48
2017-09-13T08:09:18.158Z,22.46
2017-09-13T08:11:45.682Z,22.49
2017-09-13T08:14:13.169Z,22.48
2017-09-13T08:16:40.687Z,22.48
2017-09-13T08:19:08.229Z,22.47
2017-09-13T08:21:35.736Z,22.48
2017-09-13T08:24:03.231Z,22.47
2017-09-13T08:26:30.925Z,22.47
2017-09-13T08:28:58.419Z,22.47
2017-09-13T08:31:25.926Z,22.48
2017-09-13T08:33:53.477Z,22.47
2017-09-13T08:36:21.057Z,22.48
2017-09-13T08:38:48.547Z,22.47
2017-09-13T08:41:16.086Z,22.48
2017-09-13T08:43:43.580Z,22.47
2017-09-13T08:46:11.088Z,22.47
2017-09-13T08:48:38.628Z,22.47
2017-09-13T08:51:06.260Z,22.47
2017-09-13T08:53:33.758Z,22.47
2017-09-13T08:56:01.352Z,22.46
2017-09-13T08:58:28.846Z,22.47
2017-09-13T09:00:56.345Z,22.46
2017-09-13T09:03:23.939Z,22.47
2017-09-13T09:05:51.433Z,22.47
2017-09-13T09:08:19.026Z,22.46
2017-09-13T09:10:46.665Z,22.46
2017-09-13T09:13:14.170Z,22.46
2017-09-13T09:15:41.672Z,22.47
2017-09-13T09:18:10.023Z,22.49
2017-09-13T09:20:41.029Z,22.50
2017-09-13T09:23:08.516Z,22.50
2017-09-13T09:25:36.053Z,22.52
2017-09-13T09:28:03.548Z,22.53
2017-09-13T09:30:31.049Z,22.54
2017-09-13T09:32:58.571Z,22.55
2017-09-13T09:35:26.226Z,22.58
2017-09-13T09:37:53.802Z,22.58
2017-09-13T09:40:21.692Z,22.59
2017-09-13T09:42:49.180Z,22.60
2017-09-13T09:45:16.683Z,22.62
2017-09-13T09:47:44.218Z,22.67
2017-09-13T09:50:11.821Z,22.68
2017-09-13T09:52:39.305Z,22.68
2017-09-13T09:55:06.845Z,22.66
2017-09-13T09:57:34.346Z,22.65
2017-09-13T10:00:01.917Z,22.65
2017-09-13T10:02:29.413Z,22.66
2017-09-13T10:04:56.915Z,22.67
2017-09-13T10:07:24.409Z,22.67
2017-09-13T10:09:51.935Z,22.68
2017-09-13T10:12:19.417Z,22.69
2017-09-13T10:14:46.911Z,22.68
2017-09-13T10:17:15.162Z,22.67
2017-09-13T10:19:43.339Z,22.68
2017-09-13T10:22:10.956Z,22.67
2017-09-13T10:24:38.490Z,22.66
2017-09-13T10:29:32.806Z,22.64
2017-09-13T10:32:00.410Z,22.62
2017-09-13T10:34:27.902Z,22.63
2017-09-13T10:36:55.402Z,22.62
2017-09-13T10:39:22.992Z,22.62
2017-09-13T10:41:50.492Z,22.62
2017-09-13T10:44:18.160Z,22.62
2017-09-13T10:46:45.877Z,22.61
2017-09-13T10:49:13.377Z,22.61
2017-09-13T10:51:40.952Z,22.61
2017-09-13T10:54:08.638Z,22.61
2017-09-13T10:56:36.234Z,22.61
2017-09-13T10:59:04.012Z,22.61
2017-09-13T11:01:31.601Z,22.62
2017-09-13T11:03:59.094Z,22.62
2017-09-13T11:06:26.697Z,22.63
2017-09-13T11:08:54.249Z,22.63
2017-09-13T11:11:21.742Z,22.64
2017-09-13T11:13:49.230Z,22.63
2017-09-13T11:16:16.761Z,22.61
2017-09-13T11:18:44.262Z,22.61
2017-09-13T11:21:11.755Z,22.62
2017-09-13T11:23:39.299Z,22.62
2017-09-13T11:26:07.619Z,22.62
2017-09-13T11:28:35.160Z,22.62
2017-09-13T11:31:02.678Z,22.63
2017-09-13T11:33:30.180Z,22.62
2017-09-13T11:35:57.711Z,22.61
2017-09-13T11:38:25.375Z,22.62
2017-09-13T11:40:52.908Z,22.61
2017-09-13T11:43:20.422Z,22.61
2017-09-13T11:45:47.944Z,22.61
2017-09-13T11:48:15.450Z,22.61
2017-09-13T11:50:43.024Z,22.61
2017-09-13T11:53:10.579Z,22.60
2017-09-13T11:55:38.179Z,22.60
2017-09-13T11:58:07.412Z,22.61
2017-09-13T12:00:34.946Z,22.61
2017-09-13T12:03:02.486Z,22.61
2017-09-13T12:05:30.673Z,22.60
2017-09-13T12:07:58.209Z,22.61
2017-09-13T12:10:25.723Z,22.62
2017-09-13T12:12:53.243Z,22.61
2017-09-13T12:15:20.792Z,22.61
2017-09-13T12:17:48.281Z,22.60
2017-09-13T12:20:15.768Z,22.61
2017-09-13T12:22:43.280Z,22.61
2017-09-13T12:25:10.778Z,22.61
2017-09-13T12:27:38.291Z,22.62
2017-09-13T12:30:05.844Z,22.62
2017-09-13T12:32:33.335Z,22.62
2017-09-13T12:35:00.821Z,22.61
2017-09-13T12:37:28.378Z,22.62
2017-09-13T12:39:55.901Z,22.61
2017-09-13T12:42:23.400Z,22.60
2017-09-13T12:44:50.964Z,22.60
2017-09-13T12:47:18.523Z,22.58
2017-09-13T12:49:46.031Z,22.59
2017-09-13T12:52:13.599Z,22.58
2017-09-13T12:54:41.090Z,22.57
2017-09-13T12:57:08.587Z,22.58
2017-09-13T12:59:36.095Z,22.57
2017-09-13T13:02:03.592Z,22.57
2017-09-13T13:04:31.112Z,22.57
2017-09-13T13:06:58.633Z,22.57
2017-09-13T13:09:26.138Z,22.58
2017-09-13T13:11:53.755Z,22.56
2017-09-13T13:14:21.275Z,22.55
2017-09-13T13:16:48.785Z,22.55
2017-09-13T13:19:16.275Z,22.55
2017-09-13T13:21:43.717Z,22.55
2017-09-13T13:24:11.166Z,22.56
2017-09-13T13:26:38.589Z,22.56
2017-09-13T13:29:06.190Z,22.55
2017-09-13T13:31:33.627Z,22.55
2017-09-13T13:34:01.050Z,22.53
2017-09-13T13:36:28.511Z,22.52
2017-09-13T13:38:56.176Z,22.53
2017-09-13T13:41:23.605Z,22.54
2017-09-13T13:43:51.060Z,22.53
2017-09-13T13:46:18.464Z,22.53
2017-09-13T13:48:45.891Z,22.55
2017-09-13T13:51:13.347Z,22.54
2017-09-13T13:53:40.796Z,22.54
2017-09-13T13:56:08.234Z,22.54
2017-09-13T13:58:35.679Z,22.54
2017-09-13T14:01:03.123Z,22.51
2017-09-13T14:03:30.545Z,22.50
2017-09-13T14:05:57.989Z,22.52
2017-09-13T14:08:25.409Z,22.52
2017-09-13T14:10:52.866Z,22.50
2017-09-13T14:13:20.324Z,22.50
2017-09-13T14:15:47.778Z,22.50
2017-09-13T14:18:15.256Z,22.52
2017-09-13T14:20:42.730Z,22.51
2017-09-13T14:23:10.188Z,22.48
2017-09-13T14:25:37.612Z,22.48
2017-09-13T14:28:05.135Z,22.50
2017-09-13T14:30:32.564Z,22.50
2017-09-13T14:33:00.076Z,22.50
2017-09-13T14:35:27.524Z,22.52
2017-09-13T14:37:54.951Z,22.54
2017-09-13T14:40:22.368Z,22.54
2017-09-13T14:42:49.865Z,22.53
2017-09-13T14:45:17.276Z,22.54
2017-09-13T14:47:44.709Z,22.54
2017-09-13T14:50:12.129Z,22.55
2017-09-13T14:52:39.556Z,22.53
2017-09-13T14:55:06.987Z,22.55
2017-09-13T14:57:34.427Z,22.54
2017-09-13T15:00:01.830Z,22.54
2017-09-13T15:02:29.257Z,22.54
2017-09-13T15:04:56.734Z,22.55
2017-09-13T15:07:24.146Z,22.54
2017-09-13T15:09:51.593Z,22.54
2017-09-13T15:12:19.072Z,22.56
2017-09-13T15:14:46.496Z,22.57
2017-09-13T15:17:13.912Z,22.56
2017-09-13T15:19:44.513Z,22.56
2017-09-13T15:22:11.928Z,22.56
2017-09-13T15:24:39.342Z,22.56
2017-09-13T15:27:06.876Z,22.57
2017-09-13T15:29:34.291Z,22.56
2017-09-13T15:32:01.717Z,22.54
2017-09-13T15:34:29.164Z,22.54
2017-09-13T15:36:56.601Z,22.58
2017-09-13T15:39:24.057Z,22.58
2017-09-13T15:41:51.508Z,22.57
2017-09-13T15:44:18.920Z,22.57
2017-09-13T15:46:46.345Z,22.58
2017-09-13T15:49:13.799Z,22.57
2017-09-13T15:51:41.218Z,22.57
2017-09-13T15:54:08.631Z,22.57
2017-09-13T15:56:36.089Z,22.58
2017-09-13T15:59:03.508Z,22.60
2017-09-13T16:01:30.940Z,22.62
2017-09-13T16:03:58.380Z,22.61
2017-09-13T16:06:26.270Z,22.62
2017-09-13T16:08:53.746Z,22.60
2017-09-13T16:11:21.193Z,22.64
2017-09-13T16:13:48.632Z,22.67
2017-09-13T16:16:16.038Z,22.69
2017-09-13T16:18:43.478Z,22.71
2017-09-13T16:21:10.906Z,22.69
2017-09-13T16:23:38.320Z,22.71
2017-09-13T16:26:05.751Z,22.71
2017-09-13T16:28:33.181Z,22.72
2017-09-13T16:31:00.591Z,22.72
2017-09-13T16:33:28.022Z,22.71
2017-09-13T16:35:55.439Z,22.69
2017-09-13T16:38:22.913Z,22.71
2017-09-13T16:40:50.438Z,22.70
2017-09-13T16:43:17.953Z,22.70
2017-09-13T16:45:45.509Z,22.69
2017-09-13T16:48:12.968Z,22.69
2017-09-13T16:50:40.387Z,22.68
2017-09-13T16:53:07.819Z,22.69
2017-09-13T16:55:35.268Z,22.70
2017-09-13T16:58:02.696Z,22.69
2017-09-13T17:00:30.121Z,22.69
2017-09-13T17:02:57.586Z,22.71
2017-09-13T17:05:25.088Z,22.72
2017-09-13T17:07:52.535Z,22.71
2017-09-13T17:10:19.995Z,22.71
2017-09-13T17:12:47.408Z,22.72
2017-09-13T17:15:14.832Z,22.73
2017-09-13T17:17:42.295Z,22.72
2017-09-13T17:20:09.716Z,22.71
2017-09-13T17:22:37.127Z,22.72
2017-09-13T17:25:05.133Z,22.72
2017-09-13T17:27:32.584Z,22.72
2017-09-13T17:30:00.044Z,22.71
2017-09-13T17:32:27.472Z,22.72
2017-09-13T17:34:54.890Z,22.73
2017-09-13T17:37:22.302Z,22.74
2017-09-13T17:39:49.755Z,22.74
2017-09-13T17:42:17.167Z,22.74
2017-09-13T17:44:44.584Z,22.74
2017-09-13T17:47:12.082Z,22.73
2017-09-13T17:49:39.499Z,22.73
2017-09-13T17:52:06.905Z,22.75
2017-09-13T17:54:34.342Z,22.74
2017-09-13T17:57:01.798Z,22.75
2017-09-13T17:59:29.220Z,22.76
2017-09-13T18:01:56.671Z,22.76
2017-09-13T18:04:24.084Z,22.75
2017-09-13T18:06:51.502Z,22.75
2017-09-13T18:09:18.954Z,22.75
2017-09-13T18:11:46.375Z,22.75
2017-09-13T18:14:13.774Z,22.74
2017-09-13T18:16:41.283Z,22.74
2017-09-13T18:19:08.709Z,22.74
2017-09-13T18:21:36.130Z,22.74
2017-09-13T18:24:03.579Z,22.73
2017-09-13T18:26:30.987Z,22.74
2017-09-13T18:28:58.408Z,22.73
2017-09-13T18:31:25.899Z,22.73
2017-09-13T18:33:53.334Z,22.72
2017-09-13T18:36:20.744Z,22.73
2017-09-13T18:38:48.177Z,22.73
2017-09-13T18:41:15.598Z,22.73
2017-09-13T18:43:43.007Z,22.73
2017-09-13T18:46:10.458Z,22.73
2017-09-13T18:48:38.029Z,22.73
2017-09-13T18:51:05.574Z,22.72
2017-09-13T18:53:33.201Z,22.72
2017-09-13T18:56:00.620Z,22.72
2017-09-13T18:58:28.045Z,22.73
2017-09-13T19:00:55.551Z,22.72
2017-09-13T19:03:23.003Z,22.73
2017-09-13T19:05:50.432Z,22.73
2017-09-13T19:08:17.909Z,22.73
2017-09-13T19:10:45.320Z,22.72
2017-09-13T19:13:12.743Z,22.72
2017-09-13T19:15:40.242Z,22.71
2017-09-13T19:18:07.671Z,22.71
2017-09-13T19:20:35.073Z,22.72
2017-09-13T19:23:02.524Z,22.71
2017-09-13T19:25:29.960Z,22.71
2017-09-13T19:27:57.373Z,22.72
2017-09-13T19:30:24.828Z,22.72
2017-09-13T19:32:52.245Z,22.72
2017-09-13T19:35:19.646Z,22.71
2017-09-13T19:37:47.109Z,22.72
2017-09-13T19:40:14.570Z,22.71
2017-09-13T19:42:41.985Z,22.71
2017-09-13T19:45:09.409Z,22.70
2017-09-13T19:47:36.861Z,22.69
2017-09-13T19:50:04.297Z,22.69
2017-09-13T19:52:31.795Z,22.70
2017-09-13T19:54:59.211Z,22.71
2017-09-13T19:57:26.623Z,22.70
2017-09-13T19:59:54.061Z,22.70
2017-09-13T20:02:21.484Z,22.69
2017-09-13T20:04:48.897Z,22.69
2017-09-13T20:07:16.377Z,22.69
2017-09-13T20:09:43.798Z,22.69
2017-09-13T20:12:11.210Z,22.69
2017-09-13T20:14:38.662Z,22.69
2017-09-13T20:17:06.095Z,22.68
2017-09-13T20:19:33.513Z,22.69
2017-09-13T20:22:00.961Z,22.66
2017-09-13T20:24:28.368Z,22.67
2017-09-13T20:26:55.778Z,22.67
2017-09-13T20:29:23.207Z,22.66
2017-09-13T20:31:50.632Z,22.66
2017-09-13T20:34:18.038Z,22.66
2017-09-13T20:36:45.501Z,22.65
2017-09-13T20:39:12.920Z,22.65
2017-09-13T20:41:40.334Z,22.66
2017-09-13T20:44:07.792Z,22.65
2017-09-13T20:46:35.212Z,22.65
2017-09-13T20:49:02.627Z,22.64
2017-09-13T20:51:30.128Z,22.64
2017-09-13T20:53:57.540Z,22.64
2017-09-13T20:56:24.956Z,22.65
2017-09-13T20:58:52.420Z,22.64
2017-09-13T21:01:19.841Z,22.64
2017-09-13T21:03:47.256Z,22.64
2017-09-13T21:06:15.709Z,22.62
2017-09-13T21:08:43.127Z,22.62
2017-09-13T21:11:10.549Z,22.61
2017-09-13T21:13:37.997Z,22.61
2017-09-13T21:16:05.501Z,22.61
2017-09-13T21:18:32.953Z,22.61
2017-09-13T21:21:00.528Z,22.60
2017-09-13T21:23:28.933Z,22.61
2017-09-13T21:25:56.367Z,22.60
2017-09-13T21:28:23.822Z,22.60
2017-09-13T21:30:51.315Z,22.60
2017-09-13T21:33:18.750Z,22.59
2017-09-13T21:35:46.198Z,22.59
2017-09-13T21:38:13.616Z,22.59
2017-09-13T21:40:41.020Z,22.59
2017-09-13T21:43:08.473Z,22.58
2017-09-13T21:45:35.889Z,22.58
2017-09-13T21:48:03.310Z,22.57
2017-09-13T21:50:30.757Z,22.58
2017-09-13T21:52:58.174Z,22.58
2017-09-13T21:55:25.591Z,22.57
2017-09-13T21:57:53.040Z,22.57
2017-09-13T22:00:20.491Z,22.58
2017-09-13T22:02:47.959Z,22.57
2017-09-13T22:05:15.400Z,22.57
2017-09-13T22:07:42.812Z,22.57
2017-09-13T22:10:10.226Z,22.56
2017-09-13T22:12:37.680Z,22.56
2017-09-13T22:15:05.188Z,22.56
2017-09-13T22:17:32.678Z,22.56
2017-09-13T22:20:00.097Z,22.55
2017-09-13T22:22:27.517Z,22.55
2017-09-13T22:24:54.941Z,22.55
2017-09-13T22:27:22.367Z,22.56
2017-09-13T22:29:49.785Z,22.55
2017-09-13T22:32:17.200Z,22.56
2017-09-13T22:34:44.690Z,22.56
2017-09-13T22:37:12.098Z,22.55
2017-09-13T22:39:39.521Z,22.55
2017-09-13T22:42:06.980Z,22.55
2017-09-13T22:44:34.532Z,22.55
2017-09-13T22:47:01.950Z,22.55
2017-09-13T22:49:29.416Z,22.54
2017-09-13T22:51:56.864Z,22.55
2017-09-13T22:54:24.275Z,22.54
2017-09-13T22:56:51.852Z,22.54
2017-09-13T22:59:19.255Z,22.54
2017-09-13T23:01:46.662Z,22.54
2017-09-13T23:04:14.119Z,22.54
2017-09-13T23:06:41.523Z,22.53
2017-09-13T23:09:08.960Z,22.53
2017-09-13T23:11:36.399Z,22.53
2017-09-13T23:14:03.833Z,22.53
2017-09-13T23:16:31.249Z,22.53
2017-09-13T23:18:58.711Z,22.53
2017-09-13T23:21:26.123Z,22.52
2017-09-13T23:23:53.631Z,22.53
2017-09-13T23:26:21.070Z,22.53
2017-09-13T23:28:48.474Z,22.52
2017-09-13T23:31:15.907Z,22.52
2017-09-13T23:33:43.347Z,22.52
2017-09-13T23:36:10.766Z,22.52
2017-09-13T23:38:38.239Z,22.51
2017-09-13T23:41:05.676Z,22.52
2017-09-13T23:43:33.103Z,22.52
2017-09-13T23:46:00.523Z,22.52
2017-09-13T23:48:27.976Z,22.52
2017-09-13T23:50:55.382Z,22.51
2017-09-13T23:53:22.843Z,22.51
2017-09-13T23:55:50.288Z,22.51
2017-09-13T23:58:17.778Z,22.51
